sensor_id;sensor_type;location;lat;lon;timestamp;temperature;humidity
9885;DHT22;4981;50.966;4.842;2023-07-13T00:01:49;17.40;1.00
9885;DHT22;4981;50.966;4.842;2023-07-13T00:04:17;17.30;1.00
9885;DHT22;4981;50.966;4.842;2023-07-13T00:06:45;17.20;1.00
9885;DHT22;4981;50.966;4.842;2023-07-13T00:09:13;17.50;1.00
9885;DHT22;4981;50.966;4.842;2023-07-13T00:11:42;17.20;1.00
9885;DHT22;4981;50.966;4.842;2023-07-13T00:14:10;17.20;1.00
9885;DHT22;4981;50.966;4.842;2023-07-13T00:16:39;17.20;1.00
9885;DHT22;4981;50.966;4.842;2023-07-13T00:19:09;17.10;1.00
9885;DHT22;4981;50.966;4.842;2023-07-13T00:21:37;16.90;1.00
9885;DHT22;4981;50.966;4.842;2023-07-13T00:24:05;17.00;1.00
9885;DHT22;4981;50.966;4.842;2023-07-13T00:26:33;17.00;1.00
9885;DHT22;4981;50.966;4.842;2023-07-13T00:29:01;17.00;1.00
9885;DHT22;4981;50.966;4.842;2023-07-13T00:31:28;17.00;1.00
9885;DHT22;4981;50.966;4.842;2023-07-13T00:33:55;16.90;1.00
9885;DHT22;4981;50.966;4.842;2023-07-13T00:36:22;17.00;1.00
9885;DHT22;4981;50.966;4.842;2023-07-13T00:38:49;16.90;1.00
9885;DHT22;4981;50.966;4.842;2023-07-13T00:41:16;16.90;1.00
9885;DHT22;4981;50.966;4.842;2023-07-13T00:43:43;16.80;1.00
9885;DHT22;4981;50.966;4.842;2023-07-13T00:46:16;16.90;1.00
9885;DHT22;4981;50.966;4.842;2023-07-13T00:48:45;16.80;1.00
9885;DHT22;4981;50.966;4.842;2023-07-13T00:51:14;16.70;1.00
9885;DHT22;4981;50.966;4.842;2023-07-13T00:53:42;16.70;1.00
9885;DHT22;4981;50.966;4.842;2023-07-13T00:56:09;16.90;1.00
9885;DHT22;4981;50.966;4.842;2023-07-13T00:58:37;16.80;1.00
9885;DHT22;4981;50.966;4.842;2023-07-13T01:01:04;16.80;1.00
9885;DHT22;4981;50.966;4.842;2023-07-13T01:03:34;16.60;1.00
9885;DHT22;4981;50.966;4.842;2023-07-13T01:06:01;16.60;1.00
9885;DHT22;4981;50.966;4.842;2023-07-13T01:08:29;16.50;1.00
9885;DHT22;4981;50.966;4.842;2023-07-13T01:10:57;16.50;1.00
9885;DHT22;4981;50.966;4.842;2023-07-13T01:13:25;16.50;1.00
9885;DHT22;4981;50.966;4.842;2023-07-13T01:15:53;16.60;1.00
9885;DHT22;4981;50.966;4.842;2023-07-13T01:18:23;16.50;1.00
9885;DHT22;4981;50.966;4.842;2023-07-13T01:20:54;15.90;1.00
9885;DHT22;4981;50.966;4.842;2023-07-13T01:23:22;16.30;1.00
9885;DHT22;4981;50.966;4.842;2023-07-13T01:25:49;16.30;1.00
9885;DHT22;4981;50.966;4.842;2023-07-13T01:28:17;16.30;1.00
9885;DHT22;4981;50.966;4.842;2023-07-13T01:30:46;16.30;1.00
9885;DHT22;4981;50.966;4.842;2023-07-13T01:33:14;16.20;1.00
9885;DHT22;4981;50.966;4.842;2023-07-13T01:35:42;16.20;1.00
9885;DHT22;4981;50.966;4.842;2023-07-13T01:38:12;16.20;1.00
9885;DHT22;4981;50.966;4.842;2023-07-13T01:40:40;16.30;1.00
9885;DHT22;4981;50.966;4.842;2023-07-13T01:43:07;16.20;1.00
9885;DHT22;4981;50.966;4.842;2023-07-13T01:45:34;16.20;1.00
9885;DHT22;4981;50.966;4.842;2023-07-13T01:48:01;16.20;1.00
9885;DHT22;4981;50.966;4.842;2023-07-13T01:50:28;16.30;1.00
9885;DHT22;4981;50.966;4.842;2023-07-13T01:52:55;16.30;1.00
9885;DHT22;4981;50.966;4.842;2023-07-13T01:55:23;16.10;1.00
9885;DHT22;4981;50.966;4.842;2023-07-13T01:57:50;16.30;1.00
9885;DHT22;4981;50.966;4.842;2023-07-13T02:00:18;16.20;1.00
9885;DHT22;4981;50.966;4.842;2023-07-13T02:02:45;16.30;1.00
9885;DHT22;4981;50.966;4.842;2023-07-13T02:05:13;16.30;1.00
9885;DHT22;4981;50.966;4.842;2023-07-13T02:10:09;16.10;1.00
9885;DHT22;4981;50.966;4.842;2023-07-13T02:12:38;16.10;1.00
9885;DHT22;4981;50.966;4.842;2023-07-13T02:15:07;16.20;1.00
9885;DHT22;4981;50.966;4.842;2023-07-13T02:17:34;16.20;1.00
9885;DHT22;4981;50.966;4.842;2023-07-13T02:20:02;16.20;1.00
9885;DHT22;4981;50.966;4.842;2023-07-13T02:22:30;16.10;1.00
9885;DHT22;4981;50.966;4.842;2023-07-13T02:24:57;16.20;1.00
9885;DHT22;4981;50.966;4.842;2023-07-13T02:27:24;16.10;1.00
9885;DHT22;4981;50.966;4.842;2023-07-13T02:29:52;16.10;1.00
9885;DHT22;4981;50.966;4.842;2023-07-13T02:32:19;16.30;1.00
9885;DHT22;4981;50.966;4.842;2023-07-13T02:34:46;16.10;1.00
9885;DHT22;4981;50.966;4.842;2023-07-13T02:37:13;16.00;1.00
9885;DHT22;4981;50.966;4.842;2023-07-13T02:39:40;16.10;1.00
9885;DHT22;4981;50.966;4.842;2023-07-13T02:42:08;16.10;1.00
9885;DHT22;4981;50.966;4.842;2023-07-13T02:44:34;16.20;1.00
9885;DHT22;4981;50.966;4.842;2023-07-13T02:47:03;16.10;1.00
9885;DHT22;4981;50.966;4.842;2023-07-13T02:49:30;16.10;1.00
9885;DHT22;4981;50.966;4.842;2023-07-13T02:51:57;16.10;1.00
9885;DHT22;4981;50.966;4.842;2023-07-13T02:54:24;16.00;1.00
9885;DHT22;4981;50.966;4.842;2023-07-13T02:56:51;16.00;1.00
9885;DHT22;4981;50.966;4.842;2023-07-13T02:59:18;16.10;1.00
9885;DHT22;4981;50.966;4.842;2023-07-13T03:01:45;16.10;1.00
9885;DHT22;4981;50.966;4.842;2023-07-13T03:04:13;16.10;1.00
9885;DHT22;4981;50.966;4.842;2023-07-13T03:06:45;16.10;1.00
9885;DHT22;4981;50.966;4.842;2023-07-13T03:09:12;16.20;1.00
9885;DHT22;4981;50.966;4.842;2023-07-13T03:11:39;16.20;1.00
9885;DHT22;4981;50.966;4.842;2023-07-13T03:14:07;16.20;1.00
9885;DHT22;4981;50.966;4.842;2023-07-13T03:16:34;16.20;1.00
9885;DHT22;4981;50.966;4.842;2023-07-13T03:19:02;16.30;1.00
9885;DHT22;4981;50.966;4.842;2023-07-13T03:21:30;16.20;1.00
9885;DHT22;4981;50.966;4.842;2023-07-13T03:23:57;16.10;1.00
9885;DHT22;4981;50.966;4.842;2023-07-13T03:26:24;16.20;1.00
9885;DHT22;4981;50.966;4.842;2023-07-13T03:28:51;16.10;1.00
9885;DHT22;4981;50.966;4.842;2023-07-13T03:31:21;16.20;1.00
9885;DHT22;4981;50.966;4.842;2023-07-13T03:33:49;16.20;1.00
9885;DHT22;4981;50.966;4.842;2023-07-13T03:36:18;16.10;1.00
9885;DHT22;4981;50.966;4.842;2023-07-13T03:38:47;16.20;1.00
9885;DHT22;4981;50.966;4.842;2023-07-13T03:41:15;16.30;1.00
9885;DHT22;4981;50.966;4.842;2023-07-13T03:43:42;16.20;1.00
9885;DHT22;4981;50.966;4.842;2023-07-13T03:46:09;16.20;1.00
9885;DHT22;4981;50.966;4.842;2023-07-13T03:48:37;16.20;1.00
9885;DHT22;4981;50.966;4.842;2023-07-13T03:51:05;16.20;1.00
9885;DHT22;4981;50.966;4.842;2023-07-13T03:53:32;16.10;1.00
9885;DHT22;4981;50.966;4.842;2023-07-13T03:56:00;16.20;1.00
9885;DHT22;4981;50.966;4.842;2023-07-13T03:58:31;16.20;1.00
9885;DHT22;4981;50.966;4.842;2023-07-13T04:00:59;16.30;1.00
9885;DHT22;4981;50.966;4.842;2023-07-13T04:03:28;16.00;1.00
9885;DHT22;4981;50.966;4.842;2023-07-13T04:05:58;16.20;1.00
9885;DHT22;4981;50.966;4.842;2023-07-13T04:08:27;16.30;1.00
9885;DHT22;4981;50.966;4.842;2023-07-13T04:10:54;16.10;1.00
9885;DHT22;4981;50.966;4.842;2023-07-13T04:13:23;16.20;1.00
9885;DHT22;4981;50.966;4.842;2023-07-13T04:15:50;16.20;1.00
9885;DHT22;4981;50.966;4.842;2023-07-13T04:18:18;16.20;1.00
9885;DHT22;4981;50.966;4.842;2023-07-13T04:20:45;16.20;1.00
9885;DHT22;4981;50.966;4.842;2023-07-13T04:23:12;16.20;1.00
9885;DHT22;4981;50.966;4.842;2023-07-13T04:25:42;16.20;1.00
9885;DHT22;4981;50.966;4.842;2023-07-13T04:28:09;16.20;1.00
9885;DHT22;4981;50.966;4.842;2023-07-13T04:30:38;16.20;1.00
9885;DHT22;4981;50.966;4.842;2023-07-13T04:33:05;16.20;1.00
9885;DHT22;4981;50.966;4.842;2023-07-13T04:35:32;16.20;1.00
9885;DHT22;4981;50.966;4.842;2023-07-13T04:37:59;16.10;1.00
9885;DHT22;4981;50.966;4.842;2023-07-13T04:40:27;16.20;1.00
9885;DHT22;4981;50.966;4.842;2023-07-13T04:42:54;16.10;1.00
9885;DHT22;4981;50.966;4.842;2023-07-13T04:45:22;16.20;1.00
9885;DHT22;4981;50.966;4.842;2023-07-13T04:47:51;16.10;1.00
9885;DHT22;4981;50.966;4.842;2023-07-13T04:50:19;16.20;1.00
9885;DHT22;4981;50.966;4.842;2023-07-13T04:52:49;16.20;1.00
9885;DHT22;4981;50.966;4.842;2023-07-13T04:55:16;16.20;1.00
9885;DHT22;4981;50.966;4.842;2023-07-13T04:57:43;16.10;1.00
9885;DHT22;4981;50.966;4.842;2023-07-13T05:00:11;16.30;1.00
9885;DHT22;4981;50.966;4.842;2023-07-13T05:02:39;16.30;1.00
9885;DHT22;4981;50.966;4.842;2023-07-13T05:05:08;16.20;1.00
9885;DHT22;4981;50.966;4.842;2023-07-13T05:07:35;16.10;1.00
9885;DHT22;4981;50.966;4.842;2023-07-13T05:10:02;16.30;1.00
9885;DHT22;4981;50.966;4.842;2023-07-13T05:12:30;16.30;1.00
9885;DHT22;4981;50.966;4.842;2023-07-13T05:14:57;16.30;1.00
9885;DHT22;4981;50.966;4.842;2023-07-13T05:17:24;16.30;1.00
9885;DHT22;4981;50.966;4.842;2023-07-13T05:19:51;16.40;1.00
9885;DHT22;4981;50.966;4.842;2023-07-13T05:22:19;16.50;1.00
9885;DHT22;4981;50.966;4.842;2023-07-13T05:24:46;16.30;1.00
9885;DHT22;4981;50.966;4.842;2023-07-13T05:27:13;16.30;1.00
9885;DHT22;4981;50.966;4.842;2023-07-13T05:29:40;16.50;1.00
9885;DHT22;4981;50.966;4.842;2023-07-13T05:32:07;16.50;1.00
9885;DHT22;4981;50.966;4.842;2023-07-13T05:34:34;16.40;1.00
9885;DHT22;4981;50.966;4.842;2023-07-13T05:37:01;16.50;1.00
9885;DHT22;4981;50.966;4.842;2023-07-13T05:39:30;16.60;1.00
9885;DHT22;4981;50.966;4.842;2023-07-13T05:41:57;16.50;1.00
9885;DHT22;4981;50.966;4.842;2023-07-13T05:44:24;16.40;1.00
9885;DHT22;4981;50.966;4.842;2023-07-13T05:46:50;16.60;1.00
9885;DHT22;4981;50.966;4.842;2023-07-13T05:49:17;16.60;1.00
9885;DHT22;4981;50.966;4.842;2023-07-13T05:51:44;16.60;1.00
9885;DHT22;4981;50.966;4.842;2023-07-13T05:54:11;16.60;1.00
9885;DHT22;4981;50.966;4.842;2023-07-13T05:56:40;16.70;1.00
9885;DHT22;4981;50.966;4.842;2023-07-13T05:59:07;16.60;1.00
9885;DHT22;4981;50.966;4.842;2023-07-13T06:01:33;16.60;1.00
9885;DHT22;4981;50.966;4.842;2023-07-13T06:04:01;16.80;1.00
9885;DHT22;4981;50.966;4.842;2023-07-13T06:06:28;17.30;1.00
9885;DHT22;4981;50.966;4.842;2023-07-13T06:08:55;17.50;1.00
9885;DHT22;4981;50.966;4.842;2023-07-13T06:11:23;17.10;1.00
9885;DHT22;4981;50.966;4.842;2023-07-13T06:13:52;16.90;1.00
9885;DHT22;4981;50.966;4.842;2023-07-13T06:16:20;17.10;1.00
9885;DHT22;4981;50.966;4.842;2023-07-13T06:18:47;17.20;1.00
9885;DHT22;4981;50.966;4.842;2023-07-13T06:21:15;17.10;1.00
9885;DHT22;4981;50.966;4.842;2023-07-13T06:23:43;16.90;1.00
9885;DHT22;4981;50.966;4.842;2023-07-13T08:03:38;18.50;1.00
9885;DHT22;4981;50.966;4.842;2023-07-13T08:06:05;18.90;1.00
9885;DHT22;4981;50.966;4.842;2023-07-13T08:08:33;18.90;1.00
9885;DHT22;4981;50.966;4.842;2023-07-13T08:11:03;18.90;1.00
9885;DHT22;4981;50.966;4.842;2023-07-13T08:13:30;18.90;1.00
9885;DHT22;4981;50.966;4.842;2023-07-13T08:15:56;18.60;1.00
9885;DHT22;4981;50.966;4.842;2023-07-13T08:18:24;18.90;1.00
9885;DHT22;4981;50.966;4.842;2023-07-13T08:20:52;18.80;1.00
9885;DHT22;4981;50.966;4.842;2023-07-13T08:23:21;18.80;1.00
9885;DHT22;4981;50.966;4.842;2023-07-13T08:25:50;19.20;1.00
9885;DHT22;4981;50.966;4.842;2023-07-13T08:28:18;19.00;1.00
9885;DHT22;4981;50.966;4.842;2023-07-13T08:30:45;19.00;1.00
9885;DHT22;4981;50.966;4.842;2023-07-13T08:33:14;19.10;1.00
9885;DHT22;4981;50.966;4.842;2023-07-13T08:35:41;19.40;1.00
9885;DHT22;4981;50.966;4.842;2023-07-13T08:38:09;19.50;1.00
9885;DHT22;4981;50.966;4.842;2023-07-13T08:40:36;19.60;1.00
9885;DHT22;4981;50.966;4.842;2023-07-13T08:43:03;19.80;1.00
9885;DHT22;4981;50.966;4.842;2023-07-13T08:45:36;19.60;1.00
9885;DHT22;4981;50.966;4.842;2023-07-13T08:48:08;19.60;1.00
9885;DHT22;4981;50.966;4.842;2023-07-13T08:50:55;19.80;1.00
9885;DHT22;4981;50.966;4.842;2023-07-13T08:53:29;19.70;1.00
9885;DHT22;4981;50.966;4.842;2023-07-13T08:55:58;19.80;1.00
9885;DHT22;4981;50.966;4.842;2023-07-13T08:58:27;19.80;1.00
9885;DHT22;4981;50.966;4.842;2023-07-13T09:01:04;19.90;1.00
9885;DHT22;4981;50.966;4.842;2023-07-13T09:03:41;20.10;1.00
9885;DHT22;4981;50.966;4.842;2023-07-13T09:06:12;20.30;1.00
9885;DHT22;4981;50.966;4.842;2023-07-13T09:08:59;20.20;1.00
9885;DHT22;4981;50.966;4.842;2023-07-13T09:11:41;20.00;1.00
9885;DHT22;4981;50.966;4.842;2023-07-13T09:14:26;20.40;1.00
9885;DHT22;4981;50.966;4.842;2023-07-13T09:16:58;20.40;1.00
9885;DHT22;4981;50.966;4.842;2023-07-13T09:19:28;20.30;1.00
9885;DHT22;4981;50.966;4.842;2023-07-13T09:21:59;20.30;1.00
9885;DHT22;4981;50.966;4.842;2023-07-13T09:24:37;20.10;1.00
9885;DHT22;4981;50.966;4.842;2023-07-13T09:27:15;20.00;1.00
9885;DHT22;4981;50.966;4.842;2023-07-13T09:29:47;20.00;1.00
9885;DHT22;4981;50.966;4.842;2023-07-13T09:32:18;19.90;1.00
9885;DHT22;4981;50.966;4.842;2023-07-13T09:34:51;20.20;1.00
9885;DHT22;4981;50.966;4.842;2023-07-13T09:37:20;20.30;1.00
9885;DHT22;4981;50.966;4.842;2023-07-13T09:39:49;20.20;1.00
9885;DHT22;4981;50.966;4.842;2023-07-13T09:42:20;20.40;1.00
9885;DHT22;4981;50.966;4.842;2023-07-13T09:44:53;20.50;1.00
9885;DHT22;4981;50.966;4.842;2023-07-13T09:47:25;20.50;1.00
9885;DHT22;4981;50.966;4.842;2023-07-13T09:49:57;20.50;1.00
9885;DHT22;4981;50.966;4.842;2023-07-13T09:52:25;20.80;1.00
9885;DHT22;4981;50.966;4.842;2023-07-13T09:54:55;21.00;1.00
9885;DHT22;4981;50.966;4.842;2023-07-13T09:57:26;20.90;1.00
9885;DHT22;4981;50.966;4.842;2023-07-13T09:59:55;21.10;1.00
9885;DHT22;4981;50.966;4.842;2023-07-13T10:02:26;21.10;1.00
9885;DHT22;4981;50.966;4.842;2023-07-13T10:04:58;21.10;1.00
9885;DHT22;4981;50.966;4.842;2023-07-13T10:07:25;21.20;1.00
9885;DHT22;4981;50.966;4.842;2023-07-13T10:09:54;21.10;1.00
9885;DHT22;4981;50.966;4.842;2023-07-13T10:12:22;21.10;1.00
9885;DHT22;4981;50.966;4.842;2023-07-13T10:14:51;21.20;1.00
9885;DHT22;4981;50.966;4.842;2023-07-13T10:17:24;21.40;1.00
9885;DHT22;4981;50.966;4.842;2023-07-13T10:19:52;20.90;1.00
9885;DHT22;4981;50.966;4.842;2023-07-13T10:22:25;20.90;1.00
9885;DHT22;4981;50.966;4.842;2023-07-13T10:24:55;21.10;1.00
9885;DHT22;4981;50.966;4.842;2023-07-13T10:27:29;21.20;1.00
9885;DHT22;4981;50.966;4.842;2023-07-13T10:30:09;20.40;1.00
9885;DHT22;4981;50.966;4.842;2023-07-13T10:32:38;21.00;1.00
9885;DHT22;4981;50.966;4.842;2023-07-13T10:35:09;21.00;1.00
9885;DHT22;4981;50.966;4.842;2023-07-13T10:37:43;21.00;1.00
9885;DHT22;4981;50.966;4.842;2023-07-13T10:40:17;21.40;1.00
9885;DHT22;4981;50.966;4.842;2023-07-13T10:42:47;21.60;1.00
9885;DHT22;4981;50.966;4.842;2023-07-13T10:45:16;21.80;1.00
9885;DHT22;4981;50.966;4.842;2023-07-13T10:47:44;21.90;1.00
9885;DHT22;4981;50.966;4.842;2023-07-13T10:50:17;21.60;1.00
9885;DHT22;4981;50.966;4.842;2023-07-13T10:52:46;21.70;1.00
9885;DHT22;4981;50.966;4.842;2023-07-13T10:55:39;22.00;1.00
9885;DHT22;4981;50.966;4.842;2023-07-13T10:58:18;21.80;1.00
9885;DHT22;4981;50.966;4.842;2023-07-13T11:00:53;22.30;1.00
9885;DHT22;4981;50.966;4.842;2023-07-13T11:03:23;22.20;1.00
9885;DHT22;4981;50.966;4.842;2023-07-13T11:06:05;21.90;1.00
9885;DHT22;4981;50.966;4.842;2023-07-13T11:08:35;21.60;1.00
9885;DHT22;4981;50.966;4.842;2023-07-13T11:11:34;21.60;1.00
9885;DHT22;4981;50.966;4.842;2023-07-13T11:14:03;21.50;1.00
9885;DHT22;4981;50.966;4.842;2023-07-13T11:16:35;22.00;1.00
9885;DHT22;4981;50.966;4.842;2023-07-13T11:19:28;22.00;1.00
9885;DHT22;4981;50.966;4.842;2023-07-13T11:22:15;22.20;1.00
9885;DHT22;4981;50.966;4.842;2023-07-13T11:24:57;22.20;1.00
9885;DHT22;4981;50.966;4.842;2023-07-13T11:27:38;22.80;1.00
9885;DHT22;4981;50.966;4.842;2023-07-13T11:30:23;22.60;1.00
9885;DHT22;4981;50.966;4.842;2023-07-13T11:33:02;22.80;1.00
9885;DHT22;4981;50.966;4.842;2023-07-13T11:35:33;22.70;1.00
9885;DHT22;4981;50.966;4.842;2023-07-13T11:38:02;22.20;1.00
9885;DHT22;4981;50.966;4.842;2023-07-13T11:40:29;22.00;1.00
9885;DHT22;4981;50.966;4.842;2023-07-13T11:43:02;22.30;1.00
9885;DHT22;4981;50.966;4.842;2023-07-13T11:45:33;22.40;1.00
9885;DHT22;4981;50.966;4.842;2023-07-13T11:48:00;22.40;1.00
9885;DHT22;4981;50.966;4.842;2023-07-13T11:50:27;22.50;1.00
9885;DHT22;4981;50.966;4.842;2023-07-13T11:52:55;22.30;1.00
9885;DHT22;4981;50.966;4.842;2023-07-13T11:55:23;22.50;1.00
9885;DHT22;4981;50.966;4.842;2023-07-13T11:57:58;22.20;1.00
9885;DHT22;4981;50.966;4.842;2023-07-13T12:00:29;22.00;1.00
9885;DHT22;4981;50.966;4.842;2023-07-13T12:03:00;22.00;1.00
9885;DHT22;4981;50.966;4.842;2023-07-13T12:05:30;22.20;1.00
9885;DHT22;4981;50.966;4.842;2023-07-13T12:07:58;22.10;1.00
9885;DHT22;4981;50.966;4.842;2023-07-13T12:10:26;22.20;1.00
9885;DHT22;4981;50.966;4.842;2023-07-13T12:12:56;22.40;1.00
9885;DHT22;4981;50.966;4.842;2023-07-13T12:15:28;23.00;1.00
9885;DHT22;4981;50.966;4.842;2023-07-13T12:17:56;22.50;1.00
9885;DHT22;4981;50.966;4.842;2023-07-13T12:20:26;22.10;1.00
9885;DHT22;4981;50.966;4.842;2023-07-13T12:22:53;22.10;1.00
9885;DHT22;4981;50.966;4.842;2023-07-13T12:25:28;21.80;1.00
9885;DHT22;4981;50.966;4.842;2023-07-13T12:27:55;21.10;1.00
9885;DHT22;4981;50.966;4.842;2023-07-13T12:30:25;20.90;1.00
9885;DHT22;4981;50.966;4.842;2023-07-13T12:33:01;18.10;1.00
9885;DHT22;4981;50.966;4.842;2023-07-13T12:35:29;17.90;1.00
9885;DHT22;4981;50.966;4.842;2023-07-13T12:38:01;17.80;1.00
9885;DHT22;4981;50.966;4.842;2023-07-13T12:40:32;18.50;1.00
9885;DHT22;4981;50.966;4.842;2023-07-13T12:43:01;18.30;1.00
9885;DHT22;4981;50.966;4.842;2023-07-13T12:45:33;18.20;1.00
9885;DHT22;4981;50.966;4.842;2023-07-13T12:48:10;18.10;1.00
9885;DHT22;4981;50.966;4.842;2023-07-13T12:50:42;18.10;1.00
9885;DHT22;4981;50.966;4.842;2023-07-13T12:53:13;18.90;1.00
9885;DHT22;4981;50.966;4.842;2023-07-13T12:55:43;18.90;1.00
9885;DHT22;4981;50.966;4.842;2023-07-13T12:58:17;18.70;1.00
9885;DHT22;4981;50.966;4.842;2023-07-13T13:00:49;18.50;1.00
9885;DHT22;4981;50.966;4.842;2023-07-13T13:03:28;18.20;1.00
9885;DHT22;4981;50.966;4.842;2023-07-13T13:05:58;18.20;1.00
9885;DHT22;4981;50.966;4.842;2023-07-13T13:08:29;17.90;1.00
9885;DHT22;4981;50.966;4.842;2023-07-13T13:10:56;17.50;1.00
9885;DHT22;4981;50.966;4.842;2023-07-13T13:13:23;17.60;1.00
9885;DHT22;4981;50.966;4.842;2023-07-13T13:15:53;17.90;1.00
9885;DHT22;4981;50.966;4.842;2023-07-13T13:18:23;18.10;1.00
9885;DHT22;4981;50.966;4.842;2023-07-13T13:20:50;18.10;1.00
9885;DHT22;4981;50.966;4.842;2023-07-13T13:23:19;18.30;1.00
9885;DHT22;4981;50.966;4.842;2023-07-13T13:25:50;18.40;1.00
9885;DHT22;4981;50.966;4.842;2023-07-13T13:28:18;18.10;1.00
9885;DHT22;4981;50.966;4.842;2023-07-13T13:30:47;18.00;1.00
9885;DHT22;4981;50.966;4.842;2023-07-13T13:33:17;18.10;1.00
9885;DHT22;4981;50.966;4.842;2023-07-13T13:35:46;18.20;1.00
9885;DHT22;4981;50.966;4.842;2023-07-13T13:38:14;18.30;1.00
9885;DHT22;4981;50.966;4.842;2023-07-13T13:40:42;18.30;1.00
9885;DHT22;4981;50.966;4.842;2023-07-13T13:43:14;18.50;1.00
9885;DHT22;4981;50.966;4.842;2023-07-13T13:45:42;18.50;1.00
9885;DHT22;4981;50.966;4.842;2023-07-13T13:48:14;18.70;1.00
9885;DHT22;4981;50.966;4.842;2023-07-13T13:50:42;18.90;1.00
9885;DHT22;4981;50.966;4.842;2023-07-13T13:53:12;18.80;1.00
9885;DHT22;4981;50.966;4.842;2023-07-13T13:55:39;18.60;1.00
9885;DHT22;4981;50.966;4.842;2023-07-13T13:58:08;18.40;1.00
9885;DHT22;4981;50.966;4.842;2023-07-13T14:00:35;18.90;1.00
9885;DHT22;4981;50.966;4.842;2023-07-13T14:03:02;18.90;1.00
9885;DHT22;4981;50.966;4.842;2023-07-13T14:05:29;18.80;1.00
9885;DHT22;4981;50.966;4.842;2023-07-13T14:07:57;18.90;1.00
9885;DHT22;4981;50.966;4.842;2023-07-13T14:10:26;19.00;1.00
9885;DHT22;4981;50.966;4.842;2023-07-13T14:12:55;19.30;1.00
9885;DHT22;4981;50.966;4.842;2023-07-13T14:15:25;19.20;1.00
9885;DHT22;4981;50.966;4.842;2023-07-13T14:17:52;19.10;1.00
9885;DHT22;4981;50.966;4.842;2023-07-13T14:20:22;19.20;1.00
9885;DHT22;4981;50.966;4.842;2023-07-13T14:22:50;19.40;1.00
9885;DHT22;4981;50.966;4.842;2023-07-13T14:25:18;19.30;1.00
9885;DHT22;4981;50.966;4.842;2023-07-13T14:27:49;19.40;1.00
9885;DHT22;4981;50.966;4.842;2023-07-13T14:30:19;19.80;1.00
9885;DHT22;4981;50.966;4.842;2023-07-13T14:32:46;20.90;1.00
9885;DHT22;4981;50.966;4.842;2023-07-13T14:35:16;21.10;1.00
9885;DHT22;4981;50.966;4.842;2023-07-13T14:37:44;21.40;1.00
9885;DHT22;4981;50.966;4.842;2023-07-13T14:40:13;21.90;1.00
9885;DHT22;4981;50.966;4.842;2023-07-13T14:42:41;22.60;1.00
9885;DHT22;4981;50.966;4.842;2023-07-13T14:45:14;22.80;1.00
9885;DHT22;4981;50.966;4.842;2023-07-13T14:47:42;23.40;1.00
9885;DHT22;4981;50.966;4.842;2023-07-13T14:50:14;23.10;1.00
9885;DHT22;4981;50.966;4.842;2023-07-13T14:52:42;23.90;1.00
9885;DHT22;4981;50.966;4.842;2023-07-13T14:55:11;24.30;1.00
9885;DHT22;4981;50.966;4.842;2023-07-13T14:57:38;24.90;1.00
9885;DHT22;4981;50.966;4.842;2023-07-13T15:00:14;24.80;1.00
9885;DHT22;4981;50.966;4.842;2023-07-13T15:02:43;24.90;1.00
9885;DHT22;4981;50.966;4.842;2023-07-13T15:05:14;24.40;1.00
9885;DHT22;4981;50.966;4.842;2023-07-13T15:07:42;24.30;1.00
9885;DHT22;4981;50.966;4.842;2023-07-13T15:10:14;24.10;1.00
9885;DHT22;4981;50.966;4.842;2023-07-13T15:12:41;24.40;1.00
9885;DHT22;4981;50.966;4.842;2023-07-13T15:15:08;24.90;1.00
9885;DHT22;4981;50.966;4.842;2023-07-13T15:17:38;22.60;1.00
9885;DHT22;4981;50.966;4.842;2023-07-13T15:20:19;25.20;1.00
9885;DHT22;4981;50.966;4.842;2023-07-13T15:22:46;24.70;1.00
9885;DHT22;4981;50.966;4.842;2023-07-13T15:25:17;25.40;1.00
9885;DHT22;4981;50.966;4.842;2023-07-13T15:27:45;25.60;1.00
9885;DHT22;4981;50.966;4.842;2023-07-13T15:30:13;25.10;1.00
9885;DHT22;4981;50.966;4.842;2023-07-13T15:32:43;24.60;1.00
9885;DHT22;4981;50.966;4.842;2023-07-13T15:35:14;24.80;1.00
9885;DHT22;4981;50.966;4.842;2023-07-13T15:37:42;24.70;1.00
9885;DHT22;4981;50.966;4.842;2023-07-13T15:40:11;24.30;1.00
9885;DHT22;4981;50.966;4.842;2023-07-13T15:42:39;24.50;1.00
9885;DHT22;4981;50.966;4.842;2023-07-13T15:45:15;24.90;1.00
9885;DHT22;4981;50.966;4.842;2023-07-13T15:47:45;25.70;1.00
9885;DHT22;4981;50.966;4.842;2023-07-13T15:50:13;25.50;1.00
9885;DHT22;4981;50.966;4.842;2023-07-13T15:52:42;25.80;1.00
9885;DHT22;4981;50.966;4.842;2023-07-13T15:55:11;25.90;1.00
9885;DHT22;4981;50.966;4.842;2023-07-13T15:57:46;26.30;4.90
9885;DHT22;4981;50.966;4.842;2023-07-13T16:00:16;26.50;5.70
9885;DHT22;4981;50.966;4.842;2023-07-13T16:02:47;26.80;1.00
9885;DHT22;4981;50.966;4.842;2023-07-13T16:05:14;26.90;1.00
9885;DHT22;4981;50.966;4.842;2023-07-13T16:07:43;25.30;1.00
9885;DHT22;4981;50.966;4.842;2023-07-13T16:10:14;27.20;2.40
9885;DHT22;4981;50.966;4.842;2023-07-13T16:12:42;28.10;1.00
9885;DHT22;4981;50.966;4.842;2023-07-13T16:15:13;26.60;1.00
9885;DHT22;4981;50.966;4.842;2023-07-13T16:17:42;28.50;1.00
9885;DHT22;4981;50.966;4.842;2023-07-13T16:20:11;27.30;1.00
9885;DHT22;4981;50.966;4.842;2023-07-13T16:22:39;27.20;1.00
9885;DHT22;4981;50.966;4.842;2023-07-13T16:25:15;26.10;1.00
9885;DHT22;4981;50.966;4.842;2023-07-13T16:27:44;26.00;1.00
9885;DHT22;4981;50.966;4.842;2023-07-13T16:30:16;26.00;1.30
9885;DHT22;4981;50.966;4.842;2023-07-13T16:32:47;26.10;1.00
9885;DHT22;4981;50.966;4.842;2023-07-13T16:35:18;26.30;1.00
9885;DHT22;4981;50.966;4.842;2023-07-13T16:37:45;26.80;1.00
9885;DHT22;4981;50.966;4.842;2023-07-13T16:40:20;27.30;1.00
9885;DHT22;4981;50.966;4.842;2023-07-13T16:42:49;27.70;1.00
9885;DHT22;4981;50.966;4.842;2023-07-13T16:45:17;27.50;1.00
9885;DHT22;4981;50.966;4.842;2023-07-13T16:47:46;27.00;1.00
9885;DHT22;4981;50.966;4.842;2023-07-13T16:50:19;26.40;1.00
9885;DHT22;4981;50.966;4.842;2023-07-13T16:52:47;26.40;1.00
9885;DHT22;4981;50.966;4.842;2023-07-13T16:55:16;26.30;1.00
9885;DHT22;4981;50.966;4.842;2023-07-13T16:57:48;26.10;20.80
9885;DHT22;4981;50.966;4.842;2023-07-13T17:00:23;26.00;1.40
9885;DHT22;4981;50.966;4.842;2023-07-13T17:02:54;26.00;4.40
9885;DHT22;4981;50.966;4.842;2023-07-13T17:05:29;26.00;1.00
9885;DHT22;4981;50.966;4.842;2023-07-13T17:07:56;25.80;1.00
9885;DHT22;4981;50.966;4.842;2023-07-13T17:10:25;25.80;1.00
9885;DHT22;4981;50.966;4.842;2023-07-13T17:12:54;26.10;1.00
9885;DHT22;4981;50.966;4.842;2023-07-13T17:15:22;26.20;1.00
9885;DHT22;4981;50.966;4.842;2023-07-13T17:17:51;26.30;1.00
9885;DHT22;4981;50.966;4.842;2023-07-13T17:20:32;26.40;3.50
9885;DHT22;4981;50.966;4.842;2023-07-13T17:23:03;26.50;1.00
9885;DHT22;4981;50.966;4.842;2023-07-13T17:25:31;26.50;1.00
9885;DHT22;4981;50.966;4.842;2023-07-13T17:27:58;26.70;1.00
9885;DHT22;4981;50.966;4.842;2023-07-13T17:30:25;26.50;1.00
9885;DHT22;4981;50.966;4.842;2023-07-13T17:32:52;26.20;1.00
9885;DHT22;4981;50.966;4.842;2023-07-13T17:35:23;26.10;1.00
9885;DHT22;4981;50.966;4.842;2023-07-13T17:37:54;25.40;1.00
9885;DHT22;4981;50.966;4.842;2023-07-13T17:40:22;25.30;1.00
9885;DHT22;4981;50.966;4.842;2023-07-13T17:42:50;25.30;1.00
9885;DHT22;4981;50.966;4.842;2023-07-13T17:45:21;25.80;1.00
9885;DHT22;4981;50.966;4.842;2023-07-13T17:47:49;26.20;1.00
9885;DHT22;4981;50.966;4.842;2023-07-13T17:50:24;26.20;1.00
9885;DHT22;4981;50.966;4.842;2023-07-13T17:52:55;26.20;1.80
9885;DHT22;4981;50.966;4.842;2023-07-13T17:55:21;25.50;1.00
9885;DHT22;4981;50.966;4.842;2023-07-13T17:57:49;25.70;1.00
9885;DHT22;4981;50.966;4.842;2023-07-13T18:00:18;21.30;1.00
9885;DHT22;4981;50.966;4.842;2023-07-13T18:02:59;25.40;1.00
9885;DHT22;4981;50.966;4.842;2023-07-13T18:05:29;25.20;1.00
9885;DHT22;4981;50.966;4.842;2023-07-13T18:07:57;25.00;1.00
9885;DHT22;4981;50.966;4.842;2023-07-13T18:10:25;24.90;1.00
9885;DHT22;4981;50.966;4.842;2023-07-13T18:12:52;24.80;1.00